Abita Springs, Louisiana
Current Conditions -  °F | °C
As of 4:53 PM on Monday 20 Oct 2014 (Local Time) from KASD Reporting Station
Clear Clear  
Wind Chill: 78°   Ceiling: Unl
Heat Index: 79°   Visibility: 10mi
Dew Point: 52°   Wind: 7mph
Humidity: 40%   Direction: 40°NE
Pressure: 29.99"   Gusts: NA
Location:  30.48°N, 90.04°W
Report Text: KASD 202153Z AUTO 04006KT 10SM CLR 26/11 A2999 RMK AO2 SLP154 T02560111
Loading
Personal Weather Stations






























Interactive Weather Map
Tropical Storm Tracking
New forecast layout! Learn more

10-Day Weather Forecast

Advertisements
Track Severe Weather on mobile